Sardinia Vera — IBWV — position and weather

sailwx.info

Track history (hours):
 
Tides and Currents Weather Stations Pressure Air Temp Water Temp Dewpoint Dewpoint Depression Visibility Wind Speed Wind Dir Waves Ship Positions

Sardinia Vera

Last reported at 2015-Aug-03 12:33 UTC. Time now 2015-Aug-03 13:05 UTC.
Position N 42°51' E 006°56'.

; draft 5.3 m.

Type: Passenger vessel. MMSI: 247392000.

Date/timePositionNaut miles runAvg speedWind from/ knotsBaromVisibWave heightAir tempDewpointWater temp
2015-Aug-03 12:33N 42°51' E 006°56'5817.8
2015-Aug-03 09:18N 42°44' E 008°14'11 1.8
2015-Aug-03 03:07N 42°46' E 007°59'1117.6
2015-Aug-03 02:30N 42°47' E 007°44'1616.6
2015-Aug-03 01:33N 42°54' E 007°25'1714.9
2015-Aug-03 00:24N 42°50' E 007°03'1011.6
2015-Aug-02 23:33N 42°50' E 006°49'1411.0
2015-Aug-02 22:15N 42°54' E 006°30'26 9.6
2015-Aug-02 19:33N 43°04' E 005°58'3 2.9
2015-Aug-02 18:33N 43°07' E 005°56'0 0.0
2015-Aug-02 17:33N 43°07' E 005°56'3 0.1
2015-Aug-01 22:19N 43°05' E 005°58'3 3.7
2015-Aug-01 21:34N 43°07' E 005°56'0 0.0
2015-Aug-01 20:34N 43°07' E 005°56'7013.9
2015-Aug-01 15:33N 42°46' E 007°27'2417.2
2015-Aug-01 14:09N 42°42' E 007°59'63 7.1
2015-Aug-01 05:20N 43°38' E 007°19'4 0.5
2015-Jul-31 20:32N 43°42' E 007°17'3916.0
2015-Jul-31 18:07N 43°16' E 007°57'2817.9
2015-Jul-31 16:33N 42°58' E 008°27'3 0.7
2015-Jul-31 12:04N 42°56' E 008°30'54 6.3
2015-Jul-31 03:32N 43°29' E 007°32'1312.1
2015-Jul-31 02:29N 43°19' E 007°43'1612.2
2015-Jul-31 01:12N 43°05' E 007°53'7 9.9
2015-Jul-31 00:26N 43°10' E 007°46'9 9.9
2015-Jul-30 23:33N 43°18' E 007°50'2511.1
2015-Jul-30 21:21N 43°04' E 008°18'1012.3
2015-Jul-30 20:33N 42°57' E 008°28'1812.3
2015-Jul-30 19:07N 42°46' E 008°47'712.1
2015-Jul-30 18:32N 42°42' E 008°54'4 3.0
2015-Jul-30 17:18N 42°38' E 008°56'0 0.0
2015-Jul-30 16:33N 42°38' E 008°56'0 0.0
2015-Jul-30 14:33N 42°38' E 008°56'2914.7
2015-Jul-30 12:33N 43°03' E 009°17'1916.3
2015-Jul-30 11:22N 43°12' E 009°40'1316.5
2015-Jul-30 10:33N 43°19' E 009°56'1716.9
2015-Jul-30 09:33N 43°31' E 010°13'4 1.8
2015-Jul-30 07:15N 43°33' E 010°18'0 0.0
2015-Jul-30 06:34N 43°33' E 010°18'0 0.0
2015-Jul-30 05:32N 43°33' E 010°18'0 0.0
2015-Jul-30 04:34N 43°33' E 010°18'0 0.0
2015-Jul-30 03:32N 43°33' E 010°18'0 0.0
2015-Jul-30 02:34N 43°33' E 010°18'0 0.0
2015-Jul-30 01:28N 43°33' E 010°18'0 0.0
2015-Jul-30 00:33N 43°33' E 010°18'0 0.0
2015-Jul-29 23:31N 43°33' E 010°18'0 0.0
2015-Jul-29 22:33N 43°33' E 010°18'0 0.0
2015-Jul-29 21:34N 43°33' E 010°18'0 0.0
2015-Jul-29 20:15N 43°33' E 010°18'0 0.0
2015-Jul-29 17:33N 43°33' E 010°18'0 0.0
2015-Jul-29 16:34N 43°33' E 010°18'0 0.0
2015-Jul-29 15:33N 43°33' E 010°18'0 0.0
2015-Jul-29 14:33N 43°33' E 010°18'1212.0
2015-Jul-29 13:33N 43°31' E 010°02'1717.4
2015-Jul-29 12:33N 43°40' E 009°42'1717.3
2015-Jul-29 11:33N 43°50' E 009°22'1817.5
2015-Jul-29 10:33N 43°59' E 009°02'1717.3
2015-Jul-29 09:33N 44°09' E 008°42'1312.5
2015-Jul-29 08:33N 44°16' E 008°27'0 0.0
2015-Jul-29 07:33N 44°16' E 008°27'0 0.0
2015-Jul-29 06:33N 44°16' E 008°27'0 0.0
2015-Jul-29 05:33N 44°16' E 008°27'0 0.0
2015-Jul-29 04:33N 44°16' E 008°27'0 0.0
2015-Jul-29 03:33N 44°16' E 008°27'0 0.0
2015-Jul-29 02:33N 44°16' E 008°27'0 0.0
2015-Jul-29 01:33N 44°16' E 008°27'0 0.0
2015-Jul-29 00:33N 44°16' E 008°27'0 0.0
2015-Jul-28 23:33N 44°16' E 008°27'0 0.0
2015-Jul-28 22:33N 44°16' E 008°27'0 0.0
2015-Jul-28 21:33N 44°16' E 008°27'0 0.0
2015-Jul-28 20:33N 44°16' E 008°27'0 0.0
2015-Jul-28 19:33N 44°16' E 008°27'0 0.0
2015-Jul-28 18:33N 44°16' E 008°27'0 0.0
2015-Jul-28 17:33N 44°16' E 008°27'0 0.0
2015-Jul-28 16:33N 44°16' E 008°27'0 0.0
2015-Jul-28 15:33N 44°16' E 008°27'0 0.0
2015-Jul-28 14:33N 44°16' E 008°27'0 0.0
2015-Jul-28 13:33N 44°16' E 008°27'0 0.0
2015-Jul-28 12:33N 44°16' E 008°27'0 0.0
2015-Jul-28 11:33N 44°16' E 008°27'0 0.0
2015-Jul-28 10:33N 44°16' E 008°27'0 0.0
2015-Jul-28 09:33N 44°16' E 008°27'0 0.0
2015-Jul-28 08:33N 44°16' E 008°27'0 0.0
2015-Jul-28 07:33N 44°16' E 008°27'0 0.0
2015-Jul-28 06:33N 44°16' E 008°27'0 0.0
2015-Jul-28 05:33N 44°16' E 008°27'0 0.0
2015-Jul-28 04:33N 44°16' E 008°27'0 0.0
2015-Jul-28 03:33N 44°16' E 008°27'0 0.0
2015-Jul-28 02:33N 44°16' E 008°27'0 0.0
2015-Jul-28 01:33N 44°16' E 008°27'0 0.0
2015-Jul-28 00:33N 44°16' E 008°27'0 0.0
2015-Jul-27 23:33N 44°16' E 008°27'0 0.0
2015-Jul-27 22:33N 44°16' E 008°27'0 0.0
2015-Jul-27 21:33N 44°16' E 008°27'0 0.0
2015-Jul-27 20:33N 44°16' E 008°27'0 0.0
2015-Jul-27 19:33N 44°16' E 008°27'0 0.0
2015-Jul-27 18:33N 44°16' E 008°27'0 0.0
2015-Jul-27 17:33N 44°16' E 008°27'0 0.0
2015-Jul-27 16:33N 44°16' E 008°27'0 0.0
2015-Jul-27 15:33N 44°16' E 008°27'0 0.0
2015-Jul-27 14:33N 44°16' E 008°27'0 0.0
2015-Jul-27 13:33N 44°16' E 008°27'0 0.0
2015-Jul-27 12:33N 44°16' E 008°27'0 0.0
2015-Jul-27 11:33N 44°16' E 008°27'0 0.0
2015-Jul-27 10:33N 44°16' E 008°27'0 0.0
2015-Jul-27 09:33N 44°16' E 008°27'0 0.0
2015-Jul-27 08:33N 44°16' E 008°27'  
2015-Jul-24 14:12N 44°16' E 008°27'0 0.0
2015-Jul-24 13:19N 44°16' E 008°27'  
Track history (hours):
 
Tides and Currents Weather Stations Pressure Air Temp Water Temp Dewpoint Dewpoint Depression Visibility Wind Speed Wind Dir Waves Ship Positions

Sardinia Vera

Last reported at 2015-Aug-03 12:33 UTC. Time now 2015-Aug-03 13:05 UTC.
Position N 42°51' E 006°56'.

; draft 5.3 m.

Type: Passenger vessel. MMSI: 247392000.

Date/timePositionNaut miles runAvg speedWind from/ knotsBaromVisibWave heightAir tempDewpointWater temp
2015-Aug-03 12:33N 42°51' E 006°56'5817.8
2015-Aug-03 09:18N 42°44' E 008°14'11 1.8
2015-Aug-03 03:07N 42°46' E 007°59'1117.6
2015-Aug-03 02:30N 42°47' E 007°44'1616.6
2015-Aug-03 01:33N 42°54' E 007°25'1714.9
2015-Aug-03 00:24N 42°50' E 007°03'1011.6
2015-Aug-02 23:33N 42°50' E 006°49'1411.0
2015-Aug-02 22:15N 42°54' E 006°30'26 9.6
2015-Aug-02 19:33N 43°04' E 005°58'3 2.9
2015-Aug-02 18:33N 43°07' E 005°56'0 0.0
2015-Aug-02 17:33N 43°07' E 005°56'3 0.1
2015-Aug-01 22:19N 43°05' E 005°58'3 3.7
2015-Aug-01 21:34N 43°07' E 005°56'0 0.0
2015-Aug-01 20:34N 43°07' E 005°56'7013.9
2015-Aug-01 15:33N 42°46' E 007°27'2417.2
2015-Aug-01 14:09N 42°42' E 007°59'63 7.1
2015-Aug-01 05:20N 43°38' E 007°19'4 0.5
2015-Jul-31 20:32N 43°42' E 007°17'3916.0
2015-Jul-31 18:07N 43°16' E 007°57'2817.9
2015-Jul-31 16:33N 42°58' E 008°27'3 0.7
2015-Jul-31 12:04N 42°56' E 008°30'54 6.3
2015-Jul-31 03:32N 43°29' E 007°32'1312.1
2015-Jul-31 02:29N 43°19' E 007°43'1612.2
2015-Jul-31 01:12N 43°05' E 007°53'7 9.9
2015-Jul-31 00:26N 43°10' E 007°46'9 9.9
2015-Jul-30 23:33N 43°18' E 007°50'2511.1
2015-Jul-30 21:21N 43°04' E 008°18'1012.3
2015-Jul-30 20:33N 42°57' E 008°28'1812.3
2015-Jul-30 19:07N 42°46' E 008°47'712.1
2015-Jul-30 18:32N 42°42' E 008°54'4 3.0
2015-Jul-30 17:18N 42°38' E 008°56'0 0.0
2015-Jul-30 16:33N 42°38' E 008°56'0 0.0
2015-Jul-30 14:33N 42°38' E 008°56'2914.7
2015-Jul-30 12:33N 43°03' E 009°17'1916.3
2015-Jul-30 11:22N 43°12' E 009°40'1316.5
2015-Jul-30 10:33N 43°19' E 009°56'1716.9
2015-Jul-30 09:33N 43°31' E 010°13'4 1.8
2015-Jul-30 07:15N 43°33' E 010°18'0 0.0
2015-Jul-30 06:34N 43°33' E 010°18'0 0.0
2015-Jul-30 05:32N 43°33' E 010°18'0 0.0
2015-Jul-30 04:34N 43°33' E 010°18'0 0.0
2015-Jul-30 03:32N 43°33' E 010°18'0 0.0
2015-Jul-30 02:34N 43°33' E 010°18'0 0.0
2015-Jul-30 01:28N 43°33' E 010°18'0 0.0
2015-Jul-30 00:33N 43°33' E 010°18'0 0.0
2015-Jul-29 23:31N 43°33' E 010°18'0 0.0
2015-Jul-29 22:33N 43°33' E 010°18'0 0.0
2015-Jul-29 21:34N 43°33' E 010°18'0 0.0
2015-Jul-29 20:15N 43°33' E 010°18'0 0.0
2015-Jul-29 17:33N 43°33' E 010°18'0 0.0
2015-Jul-29 16:34N 43°33' E 010°18'0 0.0
2015-Jul-29 15:33N 43°33' E 010°18'0 0.0
2015-Jul-29 14:33N 43°33' E 010°18'1212.0
2015-Jul-29 13:33N 43°31' E 010°02'1717.4
2015-Jul-29 12:33N 43°40' E 009°42'1717.3
2015-Jul-29 11:33N 43°50' E 009°22'1817.5
2015-Jul-29 10:33N 43°59' E 009°02'1717.3
2015-Jul-29 09:33N 44°09' E 008°42'1312.5
2015-Jul-29 08:33N 44°16' E 008°27'0 0.0
2015-Jul-29 07:33N 44°16' E 008°27'0 0.0
2015-Jul-29 06:33N 44°16' E 008°27'0 0.0
2015-Jul-29 05:33N 44°16' E 008°27'0 0.0
2015-Jul-29 04:33N 44°16' E 008°27'0 0.0
2015-Jul-29 03:33N 44°16' E 008°27'0 0.0
2015-Jul-29 02:33N 44°16' E 008°27'0 0.0
2015-Jul-29 01:33N 44°16' E 008°27'0 0.0
2015-Jul-29 00:33N 44°16' E 008°27'0 0.0
2015-Jul-28 23:33N 44°16' E 008°27'0 0.0
2015-Jul-28 22:33N 44°16' E 008°27'0 0.0
2015-Jul-28 21:33N 44°16' E 008°27'0 0.0
2015-Jul-28 20:33N 44°16' E 008°27'0 0.0
2015-Jul-28 19:33N 44°16' E 008°27'0 0.0
2015-Jul-28 18:33N 44°16' E 008°27'0 0.0
2015-Jul-28 17:33N 44°16' E 008°27'0 0.0
2015-Jul-28 16:33N 44°16' E 008°27'0 0.0
2015-Jul-28 15:33N 44°16' E 008°27'0 0.0
2015-Jul-28 14:33N 44°16' E 008°27'0 0.0
2015-Jul-28 13:33N 44°16' E 008°27'0 0.0
2015-Jul-28 12:33N 44°16' E 008°27'0 0.0
2015-Jul-28 11:33N 44°16' E 008°27'0 0.0
2015-Jul-28 10:33N 44°16' E 008°27'0 0.0
2015-Jul-28 09:33N 44°16' E 008°27'0 0.0
2015-Jul-28 08:33N 44°16' E 008°27'0 0.0
2015-Jul-28 07:33N 44°16' E 008°27'0 0.0
2015-Jul-28 06:33N 44°16' E 008°27'0 0.0
2015-Jul-28 05:33N 44°16' E 008°27'0 0.0
2015-Jul-28 04:33N 44°16' E 008°27'0 0.0
2015-Jul-28 03:33N 44°16' E 008°27'0 0.0
2015-Jul-28 02:33N 44°16' E 008°27'0 0.0
2015-Jul-28 01:33N 44°16' E 008°27'0 0.0
2015-Jul-28 00:33N 44°16' E 008°27'0 0.0
2015-Jul-27 23:33N 44°16' E 008°27'0 0.0
2015-Jul-27 22:33N 44°16' E 008°27'0 0.0
2015-Jul-27 21:33N 44°16' E 008°27'0 0.0
2015-Jul-27 20:33N 44°16' E 008°27'0 0.0
2015-Jul-27 19:33N 44°16' E 008°27'0 0.0
2015-Jul-27 18:33N 44°16' E 008°27'0 0.0
2015-Jul-27 17:33N 44°16' E 008°27'0 0.0
2015-Jul-27 16:33N 44°16' E 008°27'0 0.0
2015-Jul-27 15:33N 44°16' E 008°27'0 0.0
2015-Jul-27 14:33N 44°16' E 008°27'0 0.0
2015-Jul-27 13:33N 44°16' E 008°27'0 0.0
2015-Jul-27 12:33N 44°16' E 008°27'0 0.0
2015-Jul-27 11:33N 44°16' E 008°27'0 0.0
2015-Jul-27 10:33N 44°16' E 008°27'0 0.0
2015-Jul-27 09:33N 44°16' E 008°27'0 0.0
2015-Jul-27 08:33N 44°16' E 008°27'  
2015-Jul-24 14:12N 44°16' E 008°27'0 0.0
2015-Jul-24 13:19N 44°16' E 008°27'  

Dump ship's entire track history